createdAt,value
2018-11-27T00:00:10.450Z,57.40
2018-11-27T00:00:41.554Z,57.50
2018-11-27T00:01:12.639Z,57.50
2018-11-27T00:01:43.726Z,57.40
2018-11-27T00:02:14.825Z,57.40
2018-11-27T00:02:45.916Z,57.40
2018-11-27T00:03:17.011Z,57.30
2018-11-27T00:03:48.127Z,57.30
2018-11-27T00:04:19.230Z,57.30
2018-11-27T00:04:50.342Z,57.50
2018-11-27T00:05:21.437Z,57.30
2018-11-27T00:05:52.531Z,57.20
2018-11-27T00:06:23.619Z,57.20
2018-11-27T00:06:54.714Z,57.20
2018-11-27T00:07:25.837Z,57.20
2018-11-27T00:07:56.938Z,57.20
2018-11-27T00:08:28.047Z,57.20
2018-11-27T00:08:59.140Z,57.20
2018-11-27T00:09:30.235Z,57.10
2018-11-27T00:10:01.345Z,57.20
2018-11-27T00:10:32.440Z,57.20
2018-11-27T00:11:03.535Z,57.10
2018-11-27T00:11:34.627Z,57.20
2018-11-27T00:12:05.747Z,57.20
2018-11-27T00:12:36.970Z,57.10
2018-11-27T00:13:08.063Z,57.00
2018-11-27T00:13:39.160Z,57.00
2018-11-27T00:14:10.253Z,57.10
2018-11-27T00:14:41.361Z,57.10
2018-11-27T00:15:12.459Z,57.00
2018-11-27T00:15:43.553Z,57.00
2018-11-27T00:16:14.660Z,57.00
2018-11-27T00:16:45.760Z,57.00
2018-11-27T00:17:16.853Z,57.00
2018-11-27T00:17:47.944Z,57.10
2018-11-27T00:18:19.041Z,57.10
2018-11-27T00:18:50.137Z,57.20
2018-11-27T00:19:21.312Z,57.10
2018-11-27T00:19:52.416Z,57.20
2018-11-27T00:20:23.516Z,57.20
2018-11-27T00:20:54.610Z,57.10
2018-11-27T00:21:25.721Z,57.10
2018-11-27T00:21:56.813Z,57.10
2018-11-27T00:22:27.909Z,57.20
2018-11-27T00:22:58.997Z,57.20
2018-11-27T00:23:30.109Z,57.20
2018-11-27T00:24:01.207Z,57.10
2018-11-27T00:24:32.294Z,57.20
2018-11-27T00:25:03.390Z,57.20
2018-11-27T00:25:34.493Z,57.20
2018-11-27T00:26:05.582Z,57.10
2018-11-27T00:26:36.677Z,57.10
2018-11-27T00:27:07.765Z,57.20
2018-11-27T00:27:38.935Z,57.20
2018-11-27T00:28:10.018Z,57.20
2018-11-27T00:28:41.118Z,57.20
2018-11-27T00:29:12.198Z,57.20
2018-11-27T00:29:43.287Z,57.20
2018-11-27T00:30:14.386Z,57.20
2018-11-27T00:30:45.480Z,57.30
2018-11-27T00:31:16.592Z,57.20
2018-11-27T00:31:47.695Z,57.30
2018-11-27T00:32:18.783Z,57.30
2018-11-27T00:32:49.877Z,57.30
2018-11-27T00:33:20.984Z,57.30
2018-11-27T00:33:52.090Z,57.30
2018-11-27T00:34:23.203Z,56.70
2018-11-27T00:34:54.305Z,57.30
2018-11-27T00:35:25.399Z,57.30
2018-11-27T00:35:56.491Z,57.30
2018-11-27T00:36:27.582Z,57.30
2018-11-27T00:36:58.676Z,57.30
2018-11-27T00:37:29.779Z,57.30
2018-11-27T00:38:00.969Z,57.30
2018-11-27T00:38:32.063Z,57.30
2018-11-27T00:39:03.155Z,57.40
2018-11-27T00:39:34.258Z,57.40
2018-11-27T00:40:05.355Z,57.40
2018-11-27T00:40:36.848Z,57.50
2018-11-27T00:41:07.949Z,57.40
2018-11-27T00:41:39.044Z,57.40
2018-11-27T00:42:10.148Z,57.40
2018-11-27T00:42:41.242Z,57.30
2018-11-27T00:43:12.335Z,57.30
2018-11-27T00:43:43.432Z,57.30
2018-11-27T00:44:14.527Z,57.20
2018-11-27T00:44:45.628Z,57.20
2018-11-27T00:45:16.767Z,57.20
2018-11-27T00:45:47.876Z,57.20
2018-11-27T00:46:18.969Z,57.30
2018-11-27T00:46:50.074Z,57.30
2018-11-27T00:47:21.172Z,57.30
2018-11-27T00:47:52.285Z,57.30
2018-11-27T00:48:23.377Z,57.20
2018-11-27T00:48:54.464Z,57.20
2018-11-27T00:49:25.565Z,57.20
2018-11-27T00:49:56.671Z,57.20
2018-11-27T00:50:27.758Z,57.20
2018-11-27T00:50:58.850Z,57.20
2018-11-27T00:51:29.945Z,57.20
2018-11-27T00:52:01.057Z,57.20
2018-11-27T00:52:32.141Z,57.20
2018-11-27T00:53:03.407Z,57.20
2018-11-27T00:53:34.493Z,57.10
2018-11-27T00:54:05.590Z,57.10
2018-11-27T00:54:36.685Z,57.70
2018-11-27T00:55:07.787Z,57.10
2018-11-27T00:55:38.883Z,57.20
2018-11-27T00:56:09.982Z,57.20
2018-11-27T00:56:41.073Z,57.20
2018-11-27T00:57:12.167Z,57.20
2018-11-27T00:57:43.293Z,57.20
2018-11-27T00:58:14.387Z,57.20
2018-11-27T00:58:45.482Z,57.20
2018-11-27T00:59:16.670Z,57.20
2018-11-27T00:59:47.763Z,57.20
2018-11-27T01:00:18.863Z,57.30
2018-11-27T01:00:49.961Z,57.20
2018-11-27T01:01:21.059Z,57.20
2018-11-27T01:01:52.146Z,57.30
2018-11-27T01:02:23.256Z,57.30
2018-11-27T01:02:54.355Z,57.20
2018-11-27T01:03:25.446Z,57.30
2018-11-27T01:03:56.543Z,57.30
2018-11-27T01:04:27.648Z,57.20
2018-11-27T01:04:58.743Z,57.30
2018-11-27T01:05:29.859Z,57.30
2018-11-27T01:06:00.960Z,57.10
2018-11-27T01:06:32.089Z,57.00
2018-11-27T01:07:03.186Z,57.00
2018-11-27T01:07:34.276Z,57.10
2018-11-27T01:08:05.377Z,57.00
2018-11-27T01:08:36.476Z,57.00
2018-11-27T01:09:07.596Z,57.10
2018-11-27T01:09:38.719Z,57.00
2018-11-27T01:10:09.893Z,57.10
2018-11-27T01:10:40.993Z,57.10
2018-11-27T01:11:12.088Z,57.20
2018-11-27T01:11:43.384Z,57.20
2018-11-27T01:12:14.480Z,57.20
2018-11-27T01:12:45.580Z,57.20
2018-11-27T01:13:16.677Z,57.20
2018-11-27T01:13:47.769Z,57.10
2018-11-27T01:14:18.872Z,57.10
2018-11-27T01:14:49.978Z,57.10
2018-11-27T01:15:21.180Z,57.10
2018-11-27T01:15:52.269Z,57.10
2018-11-27T01:16:23.361Z,57.00
2018-11-27T01:16:54.482Z,57.10
2018-11-27T01:17:25.581Z,57.10
2018-11-27T01:17:56.674Z,57.10
2018-11-27T01:18:27.762Z,57.10
2018-11-27T01:18:58.845Z,57.10
2018-11-27T01:19:29.937Z,57.10
2018-11-27T01:20:01.023Z,57.10
2018-11-27T01:20:32.126Z,57.10
2018-11-27T01:21:03.213Z,57.10
2018-11-27T01:21:34.314Z,57.10
2018-11-27T01:22:05.444Z,57.00
2018-11-27T01:22:36.546Z,57.00
2018-11-27T01:23:07.630Z,57.00
2018-11-27T01:23:38.730Z,57.00
2018-11-27T01:24:09.822Z,57.00
2018-11-27T01:24:40.914Z,56.90
2018-11-27T01:25:12.002Z,56.90
2018-11-27T01:25:43.123Z,56.90
2018-11-27T01:26:14.230Z,56.90
2018-11-27T01:26:45.326Z,56.90
2018-11-27T01:27:16.439Z,56.70
2018-11-27T01:27:47.532Z,56.70
2018-11-27T01:28:18.642Z,56.70
2018-11-27T01:28:49.742Z,56.70
2018-11-27T01:29:20.835Z,56.60
2018-11-27T01:29:51.930Z,56.60
2018-11-27T01:30:23.038Z,56.70
2018-11-27T01:30:54.143Z,56.70
2018-11-27T01:31:25.287Z,56.80
2018-11-27T01:31:56.380Z,56.80
2018-11-27T01:32:27.479Z,56.80
2018-11-27T01:32:58.575Z,56.80
2018-11-27T01:33:29.675Z,56.80
2018-11-27T01:34:00.768Z,56.90
2018-11-27T01:34:31.858Z,56.90
2018-11-27T01:35:02.960Z,56.80
2018-11-27T01:35:34.071Z,56.80
2018-11-27T01:36:05.251Z,56.80
2018-11-27T01:36:36.348Z,56.70
2018-11-27T01:37:07.448Z,56.70
2018-11-27T01:37:38.541Z,56.70
2018-11-27T01:38:09.637Z,56.70
2018-11-27T01:38:40.728Z,56.70
2018-11-27T01:39:11.829Z,56.70
2018-11-27T01:39:42.928Z,56.80
2018-11-27T01:40:14.028Z,57.00
2018-11-27T01:40:45.137Z,56.80
2018-11-27T01:41:16.225Z,56.70
2018-11-27T01:41:47.325Z,56.80
2018-11-27T01:42:18.428Z,56.80
2018-11-27T01:42:49.528Z,56.80
2018-11-27T01:43:20.625Z,56.80
2018-11-27T01:43:51.733Z,56.80
2018-11-27T01:44:22.829Z,56.80
2018-11-27T01:44:53.918Z,56.80
2018-11-27T01:45:25.009Z,56.80
2018-11-27T01:45:56.115Z,56.80
2018-11-27T01:46:27.205Z,56.80
2018-11-27T01:46:58.303Z,56.80
2018-11-27T01:47:29.398Z,56.80
2018-11-27T01:48:00.477Z,56.80
2018-11-27T01:48:31.570Z,57.00
2018-11-27T01:49:02.668Z,56.80
2018-11-27T01:49:33.759Z,56.80
2018-11-27T01:50:04.853Z,56.90
2018-11-27T01:50:35.939Z,56.80
2018-11-27T01:51:07.035Z,56.90
2018-11-27T01:51:38.119Z,56.90
2018-11-27T01:52:09.230Z,56.90
2018-11-27T01:52:40.339Z,56.90
2018-11-27T01:53:11.466Z,56.90
2018-11-27T01:53:42.967Z,56.90
2018-11-27T01:54:14.151Z,56.70
2018-11-27T01:54:45.255Z,56.70
2018-11-27T01:55:16.344Z,56.70
2018-11-27T01:55:47.466Z,56.70
2018-11-27T01:56:18.567Z,56.70
2018-11-27T01:56:49.675Z,56.70
2018-11-27T01:57:20.850Z,56.70
2018-11-27T01:57:51.947Z,56.70
2018-11-27T01:58:23.054Z,56.80
2018-11-27T01:58:54.142Z,56.90
2018-11-27T01:59:25.252Z,56.90
2018-11-27T01:59:56.356Z,56.90
2018-11-27T02:00:27.462Z,56.90
2018-11-27T02:00:58.570Z,56.80
2018-11-27T02:01:29.664Z,56.80
2018-11-27T02:02:00.773Z,56.80
2018-11-27T02:02:31.886Z,56.80
2018-11-27T02:03:02.980Z,56.70
2018-11-27T02:03:34.075Z,56.70
2018-11-27T02:04:05.177Z,56.70
2018-11-27T02:04:36.268Z,56.70
2018-11-27T02:05:07.364Z,56.70
2018-11-27T02:05:38.461Z,56.60
2018-11-27T02:06:09.569Z,56.60
2018-11-27T02:06:40.671Z,56.60
2018-11-27T02:07:11.757Z,56.60
2018-11-27T02:07:42.841Z,56.60
2018-11-27T02:08:13.950Z,56.60
2018-11-27T02:08:45.102Z,56.60
2018-11-27T02:09:16.230Z,56.60
2018-11-27T02:09:47.336Z,56.60
2018-11-27T02:10:18.442Z,56.60
2018-11-27T02:10:49.530Z,56.60
2018-11-27T02:11:20.646Z,56.60
2018-11-27T02:11:51.735Z,57.30
2018-11-27T02:12:22.822Z,56.60
2018-11-27T02:12:53.916Z,56.60
2018-11-27T02:13:25.076Z,56.60
2018-11-27T02:13:56.173Z,56.60
2018-11-27T02:14:27.274Z,57.10
2018-11-27T02:14:58.367Z,56.70
2018-11-27T02:15:29.464Z,56.70
2018-11-27T02:16:00.567Z,57.30
2018-11-27T02:16:31.663Z,56.70
2018-11-27T02:17:02.748Z,56.70
2018-11-27T02:17:33.839Z,56.70
2018-11-27T02:18:04.936Z,56.60
2018-11-27T02:18:36.028Z,56.60
2018-11-27T02:19:07.120Z,56.70
2018-11-27T02:19:38.211Z,56.70
2018-11-27T02:20:09.309Z,56.60
2018-11-27T02:20:40.416Z,56.60
2018-11-27T02:21:11.528Z,56.60
2018-11-27T02:21:42.628Z,56.60
2018-11-27T02:22:13.764Z,56.60
2018-11-27T02:22:44.857Z,56.70
2018-11-27T02:23:15.969Z,56.80
2018-11-27T02:23:47.060Z,56.70
2018-11-27T02:24:18.152Z,56.70
2018-11-27T02:24:49.249Z,56.80
2018-11-27T02:25:20.356Z,56.70
2018-11-27T02:25:51.456Z,56.60
2018-11-27T02:26:22.553Z,56.70
2018-11-27T02:26:53.641Z,56.60
2018-11-27T02:27:24.741Z,56.60
2018-11-27T02:27:55.847Z,56.60
2018-11-27T02:28:27.021Z,56.70
2018-11-27T02:28:58.125Z,56.70
2018-11-27T02:29:29.223Z,57.30
2018-11-27T02:30:00.308Z,56.60
2018-11-27T02:30:31.395Z,56.60
2018-11-27T02:31:02.490Z,56.60
2018-11-27T02:31:33.580Z,56.60
2018-11-27T02:32:04.667Z,56.70
2018-11-27T02:32:35.759Z,56.70
2018-11-27T02:33:06.845Z,56.70
2018-11-27T02:33:37.930Z,56.70
2018-11-27T02:34:09.018Z,56.70
2018-11-27T02:34:40.131Z,56.60
2018-11-27T02:35:11.296Z,56.70
2018-11-27T02:35:42.398Z,56.60
2018-11-27T02:36:13.498Z,56.70
2018-11-27T02:36:44.594Z,56.60
2018-11-27T02:37:15.686Z,56.70
2018-11-27T02:37:46.795Z,56.60
2018-11-27T02:38:17.909Z,56.70
2018-11-27T02:38:49.004Z,56.70
2018-11-27T02:39:20.094Z,56.50
2018-11-27T02:39:51.195Z,56.50
2018-11-27T02:40:22.288Z,56.50
2018-11-27T02:40:53.383Z,56.50
2018-11-27T02:41:24.554Z,56.40
2018-11-27T02:41:55.647Z,56.50
2018-11-27T02:42:26.747Z,56.40
2018-11-27T02:42:57.848Z,56.40
2018-11-27T02:43:28.960Z,56.50
2018-11-27T02:44:00.057Z,56.50
2018-11-27T02:44:31.153Z,56.50
2018-11-27T02:45:02.252Z,56.50
2018-11-27T02:45:33.342Z,56.50
2018-11-27T02:46:04.442Z,57.10
2018-11-27T02:46:35.558Z,56.40
2018-11-27T02:47:06.664Z,56.30
2018-11-27T02:47:37.764Z,56.30
2018-11-27T02:48:08.864Z,56.50
2018-11-27T02:48:39.977Z,56.30
2018-11-27T02:49:11.071Z,56.30
2018-11-27T02:49:42.172Z,56.30
2018-11-27T02:50:13.292Z,56.30
2018-11-27T02:50:44.401Z,56.30
2018-11-27T02:51:15.520Z,56.20
2018-11-27T02:51:46.617Z,56.30
2018-11-27T02:52:17.733Z,56.30
2018-11-27T02:52:48.898Z,56.30
2018-11-27T02:53:20.014Z,56.30
2018-11-27T02:53:51.098Z,56.30
2018-11-27T02:54:22.189Z,56.30
2018-11-27T02:54:53.294Z,56.40
2018-11-27T02:55:24.410Z,56.40
2018-11-27T02:55:55.570Z,56.40
2018-11-27T02:56:26.665Z,56.40
2018-11-27T02:56:57.781Z,56.40
2018-11-27T02:57:28.879Z,56.30
2018-11-27T02:57:59.961Z,56.40
2018-11-27T02:58:31.050Z,56.40
2018-11-27T02:59:02.138Z,56.40
2018-11-27T02:59:33.234Z,56.40
2018-11-27T03:00:04.323Z,56.40
2018-11-27T03:00:35.418Z,56.40
2018-11-27T03:01:06.530Z,56.40
2018-11-27T03:01:37.635Z,56.40
2018-11-27T03:02:08.744Z,56.30
2018-11-27T03:02:39.856Z,56.30
2018-11-27T03:03:10.967Z,56.20
2018-11-27T03:03:42.066Z,56.20
2018-11-27T03:04:13.159Z,56.20
2018-11-27T03:04:44.255Z,56.20
2018-11-27T03:05:15.353Z,56.30
2018-11-27T03:05:46.445Z,56.40
2018-11-27T03:06:17.567Z,56.40
2018-11-27T03:06:48.675Z,56.40
2018-11-27T03:07:19.775Z,56.40
2018-11-27T03:07:50.899Z,56.40
2018-11-27T03:08:22.673Z,56.40
2018-11-27T03:08:53.155Z,56.40
2018-11-27T03:09:24.255Z,56.40
2018-11-27T03:09:55.352Z,56.30
2018-11-27T03:10:26.444Z,56.30
2018-11-27T03:10:57.560Z,56.30
2018-11-27T03:11:28.688Z,56.30
2018-11-27T03:11:59.780Z,56.30
2018-11-27T03:12:30.872Z,56.30
2018-11-27T03:13:01.974Z,56.30
2018-11-27T03:13:33.076Z,56.30
2018-11-27T03:14:04.172Z,56.30
2018-11-27T03:14:35.267Z,56.30
2018-11-27T03:15:06.368Z,56.30
2018-11-27T03:15:37.456Z,56.30
2018-11-27T03:16:08.552Z,56.40
2018-11-27T03:16:39.649Z,56.30
2018-11-27T03:17:10.749Z,56.30
2018-11-27T03:17:41.841Z,56.40
2018-11-27T03:18:12.950Z,56.30
2018-11-27T03:18:44.061Z,56.30
2018-11-27T03:19:15.153Z,56.30
2018-11-27T03:19:46.251Z,56.30
2018-11-27T03:20:17.348Z,56.30
2018-11-27T03:20:48.449Z,56.30
2018-11-27T03:21:19.554Z,56.30
2018-11-27T03:21:50.667Z,56.20
2018-11-27T03:22:21.797Z,56.20
2018-11-27T03:22:52.900Z,56.20
2018-11-27T03:23:23.998Z,56.10
2018-11-27T03:23:55.090Z,56.20
2018-11-27T03:24:26.188Z,56.10
2018-11-27T03:24:57.282Z,56.10
2018-11-27T03:25:28.386Z,56.20
2018-11-27T03:25:59.498Z,56.20
2018-11-27T03:26:30.701Z,56.20
2018-11-27T03:27:01.815Z,56.10
2018-11-27T03:27:32.901Z,56.10
2018-11-27T03:28:03.995Z,56.10
2018-11-27T03:28:35.102Z,56.10
2018-11-27T03:29:06.203Z,56.10
2018-11-27T03:29:37.308Z,56.10
2018-11-27T03:30:08.421Z,56.00
2018-11-27T03:30:39.524Z,56.00
2018-11-27T03:31:10.637Z,56.00
2018-11-27T03:31:41.749Z,56.00
2018-11-27T03:32:12.854Z,56.00
2018-11-27T03:32:43.949Z,56.00
2018-11-27T03:33:15.050Z,56.00
2018-11-27T03:33:46.140Z,56.00
2018-11-27T03:34:17.256Z,56.00
2018-11-27T03:34:48.363Z,56.10
2018-11-27T03:35:19.452Z,56.20
2018-11-27T03:35:50.568Z,56.70
2018-11-27T03:36:21.668Z,56.10
2018-11-27T03:36:52.772Z,56.10
2018-11-27T03:37:23.864Z,56.10
2018-11-27T03:37:54.960Z,56.10
2018-11-27T03:38:26.077Z,56.10
2018-11-27T03:38:57.192Z,56.20
2018-11-27T03:39:28.296Z,56.10
2018-11-27T03:39:59.400Z,56.10
2018-11-27T03:40:30.488Z,56.10
2018-11-27T03:41:01.580Z,56.00
2018-11-27T03:41:32.734Z,56.10
2018-11-27T03:42:03.830Z,56.10
2018-11-27T03:42:34.927Z,56.10
2018-11-27T03:43:06.044Z,56.00
2018-11-27T03:43:37.148Z,56.10
2018-11-27T03:44:08.245Z,56.10
2018-11-27T03:44:39.347Z,56.10
2018-11-27T03:45:10.452Z,56.10
2018-11-27T03:45:41.565Z,56.10
2018-11-27T03:46:12.681Z,56.10
2018-11-27T03:46:43.772Z,56.10
2018-11-27T03:47:14.885Z,56.10
2018-11-27T03:47:45.983Z,56.10
2018-11-27T03:48:17.097Z,56.10
2018-11-27T03:48:48.187Z,56.60
2018-11-27T03:49:19.279Z,56.10
2018-11-27T03:49:50.389Z,56.10
2018-11-27T03:50:21.509Z,56.00
2018-11-27T03:50:52.610Z,55.90
2018-11-27T03:51:23.702Z,56.00
2018-11-27T03:51:54.811Z,56.00
2018-11-27T03:52:25.918Z,55.70
2018-11-27T03:52:57.017Z,56.00
2018-11-27T03:53:28.126Z,56.00
2018-11-27T03:53:59.233Z,56.00
2018-11-27T03:54:30.335Z,56.00
2018-11-27T03:55:01.433Z,56.00
2018-11-27T03:55:32.530Z,56.10
2018-11-27T03:56:03.619Z,56.00
2018-11-27T03:56:34.712Z,56.00
2018-11-27T03:57:05.911Z,56.00
2018-11-27T03:57:36.996Z,56.00
2018-11-27T03:58:08.112Z,56.00
2018-11-27T03:58:39.260Z,56.00
2018-11-27T03:59:10.363Z,56.00
2018-11-27T03:59:41.463Z,55.90
2018-11-27T04:00:12.563Z,55.90
2018-11-27T04:00:43.656Z,55.90
2018-11-27T04:01:14.752Z,55.90
2018-11-27T04:01:45.859Z,55.90
2018-11-27T04:02:16.964Z,55.90
2018-11-27T04:03:24.818Z,55.80
2018-11-27T04:03:55.907Z,55.90
2018-11-27T04:04:27.003Z,55.80
2018-11-27T04:04:58.110Z,55.80
2018-11-27T04:05:29.200Z,55.80
2018-11-27T04:06:00.291Z,55.80
2018-11-27T04:06:31.397Z,55.80
2018-11-27T04:07:02.496Z,55.80
2018-11-27T04:07:33.589Z,55.80
2018-11-27T04:08:04.685Z,55.80
2018-11-27T04:08:35.781Z,55.80
2018-11-27T04:09:06.869Z,55.70
2018-11-27T04:09:37.952Z,55.80
2018-11-27T04:10:09.050Z,55.80
2018-11-27T04:10:40.133Z,55.70
2018-11-27T04:11:11.234Z,55.60
2018-11-27T04:11:42.317Z,55.60
2018-11-27T04:12:13.422Z,55.60
2018-11-27T04:12:44.522Z,55.60
2018-11-27T04:13:15.609Z,55.60
2018-11-27T04:13:46.693Z,55.60
2018-11-27T04:14:17.781Z,55.60
2018-11-27T04:14:48.870Z,55.70
2018-11-27T04:15:19.962Z,55.80
2018-11-27T04:15:51.051Z,55.80
2018-11-27T04:16:22.135Z,55.80
2018-11-27T04:16:53.231Z,55.80
2018-11-27T04:17:24.323Z,55.70
2018-11-27T04:17:55.425Z,55.70
2018-11-27T04:18:26.526Z,56.40
2018-11-27T04:18:57.615Z,55.70
2018-11-27T04:19:28.707Z,55.70
2018-11-27T04:19:59.805Z,56.00
2018-11-27T04:20:32.331Z,55.70
2018-11-27T04:21:02.051Z,55.70
2018-11-27T04:21:33.143Z,55.80
2018-11-27T04:22:04.248Z,55.70
2018-11-27T04:22:35.335Z,55.80
2018-11-27T04:23:06.427Z,55.80
2018-11-27T04:23:37.519Z,55.70
2018-11-27T04:24:08.703Z,55.70
2018-11-27T04:24:39.796Z,55.70
2018-11-27T04:25:10.965Z,55.70
2018-11-27T04:25:42.056Z,55.70
2018-11-27T04:26:13.155Z,55.90
2018-11-27T04:26:44.248Z,55.80
2018-11-27T04:27:15.352Z,55.80
2018-11-27T04:27:46.448Z,55.80
2018-11-27T04:28:17.540Z,55.80
2018-11-27T04:28:48.644Z,55.80
2018-11-27T04:29:19.744Z,55.80
2018-11-27T04:29:50.841Z,55.70
2018-11-27T04:30:21.936Z,55.70
2018-11-27T04:30:53.025Z,55.80
2018-11-27T04:31:24.123Z,55.80
2018-11-27T04:31:55.245Z,55.80
2018-11-27T04:32:26.325Z,55.80
2018-11-27T04:32:57.412Z,55.80
2018-11-27T04:33:28.505Z,55.80
2018-11-27T04:33:59.616Z,55.80
2018-11-27T04:34:30.700Z,55.80
2018-11-27T04:35:01.795Z,55.80
2018-11-27T04:35:32.949Z,55.80
2018-11-27T04:36:04.044Z,55.60
2018-11-27T04:36:35.149Z,55.60
2018-11-27T04:37:06.251Z,55.60
2018-11-27T04:37:37.333Z,55.60
2018-11-27T04:38:08.419Z,55.70
2018-11-27T04:38:39.501Z,55.60
2018-11-27T04:39:10.582Z,55.50
2018-11-27T04:39:41.675Z,55.60
2018-11-27T04:40:12.762Z,55.60
2018-11-27T04:40:43.847Z,55.70
2018-11-27T04:41:14.938Z,55.70
2018-11-27T04:41:46.025Z,55.80
2018-11-27T04:42:17.118Z,55.70
2018-11-27T04:42:48.225Z,55.60
2018-11-27T04:43:19.339Z,55.70
2018-11-27T04:43:50.500Z,55.50
2018-11-27T04:44:21.587Z,55.50
2018-11-27T04:44:52.678Z,55.50
2018-11-27T04:45:23.787Z,55.50
2018-11-27T04:45:54.892Z,55.50
2018-11-27T04:46:25.999Z,55.50
2018-11-27T04:46:57.086Z,55.40
2018-11-27T04:47:28.408Z,55.40
2018-11-27T04:47:59.499Z,55.40
2018-11-27T04:48:30.595Z,55.40
2018-11-27T04:49:01.692Z,55.40
2018-11-27T04:49:32.796Z,55.40
2018-11-27T04:50:03.895Z,55.40
2018-11-27T04:50:34.994Z,55.40
2018-11-27T04:51:06.100Z,55.40
2018-11-27T04:51:37.193Z,55.40
2018-11-27T04:52:08.317Z,55.40
2018-11-27T04:52:39.414Z,55.40
2018-11-27T04:53:10.760Z,55.40
2018-11-27T04:53:41.861Z,55.40
2018-11-27T04:54:12.953Z,55.40
2018-11-27T04:54:44.044Z,55.40
2018-11-27T04:55:15.141Z,55.50
2018-11-27T04:55:46.232Z,55.50
2018-11-27T04:56:17.330Z,55.50
2018-11-27T04:56:48.513Z,55.50
2018-11-27T04:57:19.983Z,55.50
2018-11-27T04:57:51.064Z,55.50
2018-11-27T04:58:22.158Z,55.50
2018-11-27T04:58:53.271Z,55.50
2018-11-27T04:59:24.366Z,55.50
2018-11-27T04:59:55.465Z,55.50
2018-11-27T05:00:26.561Z,55.50
2018-11-27T05:00:57.664Z,55.50
2018-11-27T05:01:28.748Z,55.40
2018-11-27T05:01:59.834Z,55.40
2018-11-27T05:02:30.934Z,55.30
2018-11-27T05:03:02.038Z,55.30
2018-11-27T05:03:33.127Z,55.40
2018-11-27T05:04:04.211Z,55.40
2018-11-27T05:04:35.298Z,55.40
2018-11-27T05:05:06.390Z,55.40
2018-11-27T05:05:37.558Z,56.20
2018-11-27T05:06:08.646Z,55.50
2018-11-27T05:06:39.903Z,55.60
2018-11-27T05:07:11.015Z,55.60
2018-11-27T05:07:42.098Z,55.60
2018-11-27T05:08:13.190Z,55.50
2018-11-27T05:08:44.278Z,55.60
2018-11-27T05:09:15.368Z,55.60
2018-11-27T05:09:46.454Z,55.50
2018-11-27T05:10:17.574Z,55.50
2018-11-27T05:10:48.669Z,55.50
2018-11-27T05:11:19.759Z,55.50
2018-11-27T05:11:50.915Z,55.50
2018-11-27T05:12:22.015Z,55.50
2018-11-27T05:12:53.126Z,55.50
2018-11-27T05:13:24.215Z,55.50
2018-11-27T05:13:55.308Z,55.50
2018-11-27T05:14:26.395Z,55.50
2018-11-27T05:14:57.488Z,56.20
2018-11-27T05:15:28.578Z,55.50
2018-11-27T05:15:59.671Z,55.50
2018-11-27T05:16:30.771Z,55.50
2018-11-27T05:17:01.875Z,55.60
2018-11-27T05:17:33.012Z,55.50
2018-11-27T05:18:04.116Z,55.50
2018-11-27T05:18:35.204Z,55.40
2018-11-27T05:19:06.297Z,55.40
2018-11-27T05:19:37.388Z,55.40
2018-11-27T05:20:08.485Z,55.40
2018-11-27T05:20:39.585Z,55.20
2018-11-27T05:21:10.684Z,55.90
2018-11-27T05:21:41.772Z,55.20
2018-11-27T05:22:12.869Z,55.20
2018-11-27T05:22:43.964Z,55.20
2018-11-27T05:23:15.057Z,55.20
2018-11-27T05:23:46.151Z,55.30
2018-11-27T05:24:17.246Z,55.30
2018-11-27T05:24:48.352Z,56.00
2018-11-27T05:25:19.453Z,55.40
2018-11-27T05:25:50.565Z,55.50
2018-11-27T05:26:21.661Z,55.50
2018-11-27T05:26:52.750Z,55.40
2018-11-27T05:27:23.833Z,55.30
2018-11-27T05:27:54.929Z,55.30
2018-11-27T05:28:26.013Z,55.30
2018-11-27T05:28:57.109Z,55.30
2018-11-27T05:29:28.199Z,55.30
2018-11-27T05:29:59.285Z,55.30
2018-11-27T05:30:30.391Z,55.30
2018-11-27T05:31:01.474Z,55.30
2018-11-27T05:31:32.577Z,55.20
2018-11-27T05:32:03.675Z,55.30
2018-11-27T05:32:34.776Z,55.20
2018-11-27T05:33:05.858Z,55.30
2018-11-27T05:33:36.950Z,55.50
2018-11-27T05:34:08.035Z,55.30
2018-11-27T05:34:39.138Z,55.30
2018-11-27T05:35:10.228Z,55.30
2018-11-27T05:35:41.318Z,55.30
2018-11-27T05:36:12.414Z,55.30
2018-11-27T05:36:43.546Z,55.30
2018-11-27T05:37:14.628Z,55.30
2018-11-27T05:37:45.721Z,55.30
2018-11-27T05:38:16.815Z,55.30
2018-11-27T05:38:47.914Z,55.40
2018-11-27T05:39:18.999Z,55.40
2018-11-27T05:39:50.087Z,55.30
2018-11-27T05:40:21.183Z,55.40
2018-11-27T05:40:52.279Z,55.40
2018-11-27T05:41:23.384Z,55.40
2018-11-27T05:41:54.484Z,55.40
2018-11-27T05:42:25.575Z,55.40
2018-11-27T05:42:56.671Z,55.40
2018-11-27T05:43:27.766Z,55.40
2018-11-27T05:43:58.859Z,55.40
2018-11-27T05:44:29.952Z,55.40
2018-11-27T05:45:01.054Z,55.40
2018-11-27T05:45:32.148Z,55.40
2018-11-27T05:46:03.245Z,55.20
2018-11-27T05:46:34.339Z,55.20
2018-11-27T05:47:05.444Z,55.30
2018-11-27T05:47:36.536Z,55.20
2018-11-27T05:48:07.639Z,55.20
2018-11-27T05:48:38.735Z,55.30
2018-11-27T05:49:09.830Z,55.30
2018-11-27T05:49:40.928Z,55.30
2018-11-27T05:50:12.036Z,55.40
2018-11-27T05:50:43.133Z,55.50
2018-11-27T05:51:14.220Z,55.50
2018-11-27T05:51:45.332Z,55.50
2018-11-27T05:52:16.424Z,55.50
2018-11-27T05:52:47.510Z,55.40
2018-11-27T05:53:18.598Z,55.40
2018-11-27T05:53:49.694Z,55.40
2018-11-27T05:54:20.793Z,55.40
2018-11-27T05:54:51.881Z,55.40
2018-11-27T05:55:23.065Z,55.40
2018-11-27T05:55:54.153Z,55.40
2018-11-27T05:56:25.247Z,55.40
2018-11-27T05:56:56.356Z,55.40
2018-11-27T05:57:27.442Z,55.30
2018-11-27T05:57:58.526Z,55.30
2018-11-27T05:58:29.626Z,55.30
2018-11-27T05:59:00.723Z,55.30
2018-11-27T05:59:31.821Z,55.50
2018-11-27T06:00:02.914Z,55.30
2018-11-27T06:00:34.008Z,55.30
2018-11-27T06:01:05.097Z,55.30
2018-11-27T06:01:36.198Z,55.20
2018-11-27T06:02:07.302Z,55.20
2018-11-27T06:02:38.387Z,55.20
2018-11-27T06:03:09.499Z,55.20
2018-11-27T06:03:40.595Z,55.20
2018-11-27T06:04:11.690Z,55.30
2018-11-27T06:04:42.784Z,55.10
2018-11-27T06:05:13.878Z,55.10
2018-11-27T06:05:44.962Z,55.50
2018-11-27T06:06:16.059Z,55.10
2018-11-27T06:06:47.149Z,55.10
2018-11-27T06:07:18.254Z,55.00
2018-11-27T06:07:49.351Z,55.00
2018-11-27T06:08:20.438Z,55.10
2018-11-27T06:08:51.527Z,55.10
2018-11-27T06:09:22.618Z,55.00
2018-11-27T06:09:53.711Z,55.10
2018-11-27T06:10:24.810Z,55.00
2018-11-27T06:10:55.900Z,55.00
2018-11-27T06:11:26.999Z,55.10
2018-11-27T06:11:58.088Z,55.10
2018-11-27T06:12:29.198Z,55.20
2018-11-27T06:13:00.299Z,56.00
2018-11-27T06:13:31.388Z,55.30
2018-11-27T06:14:02.482Z,55.30
2018-11-27T06:14:33.588Z,55.30
2018-11-27T06:15:04.681Z,55.30
2018-11-27T06:15:35.778Z,55.20
2018-11-27T06:16:06.872Z,55.20
2018-11-27T06:16:37.968Z,55.20
2018-11-27T06:17:09.064Z,55.10
2018-11-27T06:17:40.172Z,55.10
2018-11-27T06:18:11.264Z,55.10
2018-11-27T06:18:42.373Z,55.10
2018-11-27T06:19:13.472Z,55.10
2018-11-27T06:19:44.573Z,55.10
2018-11-27T06:20:15.657Z,55.20
2018-11-27T06:20:46.754Z,55.20
2018-11-27T06:21:17.841Z,55.20
2018-11-27T06:21:48.938Z,55.20
2018-11-27T06:22:20.018Z,55.20
2018-11-27T06:22:51.111Z,55.20
2018-11-27T06:23:22.195Z,55.10
2018-11-27T06:23:53.283Z,55.10
2018-11-27T06:24:24.369Z,55.00
2018-11-27T06:24:55.464Z,55.10
2018-11-27T06:25:26.564Z,54.90
2018-11-27T06:25:57.650Z,54.90
2018-11-27T06:26:28.759Z,55.00
2018-11-27T06:26:59.850Z,55.10
2018-11-27T06:27:30.932Z,55.10
2018-11-27T06:28:02.024Z,55.20
2018-11-27T06:28:33.118Z,55.20
2018-11-27T06:29:04.198Z,55.30
2018-11-27T06:29:35.286Z,55.20
2018-11-27T06:30:06.383Z,55.30
2018-11-27T06:30:37.499Z,55.20
2018-11-27T06:31:08.591Z,55.20
2018-11-27T06:31:39.681Z,55.20
2018-11-27T06:32:10.766Z,55.10
2018-11-27T06:32:41.856Z,55.20
2018-11-27T06:33:12.952Z,55.20
2018-11-27T06:33:44.044Z,55.20
2018-11-27T06:34:15.139Z,55.20
2018-11-27T06:34:46.235Z,55.20
2018-11-27T06:35:17.331Z,55.20
2018-11-27T06:35:48.428Z,55.20
2018-11-27T06:36:19.511Z,55.10
2018-11-27T06:36:50.604Z,55.10
2018-11-27T06:37:21.691Z,55.00
2018-11-27T06:37:52.796Z,55.10
2018-11-27T06:38:23.888Z,55.00
2018-11-27T06:38:54.979Z,55.70
2018-11-27T06:39:26.076Z,55.00
2018-11-27T06:39:57.172Z,54.90
2018-11-27T06:40:28.262Z,54.90
2018-11-27T06:40:59.356Z,55.00